sensor_id;sensor_type;location;lat;lon;timestamp;P1;durP1;ratioP1;P2;durP2;ratioP2
78131;SDS011;67381;47.672;9.380;2023-04-25T00:01:12;6.07;;;3.30;;
78131;SDS011;67381;47.672;9.380;2023-04-25T00:03:39;8.75;;;3.53;;
78131;SDS011;67381;47.672;9.380;2023-04-25T00:06:07;10.00;;;4.40;;
78131;SDS011;67381;47.672;9.380;2023-04-25T00:08:35;10.98;;;3.35;;
78131;SDS011;67381;47.672;9.380;2023-04-25T00:11:02;6.22;;;3.03;;
78131;SDS011;67381;47.672;9.380;2023-04-25T00:13:29;5.82;;;2.70;;
78131;SDS011;67381;47.672;9.380;2023-04-25T00:15:57;8.73;;;3.78;;
78131;SDS011;67381;47.672;9.380;2023-04-25T00:18:25;6.93;;;2.90;;
78131;SDS011;67381;47.672;9.380;2023-04-25T00:20:55;8.00;;;3.00;;
78131;SDS011;67381;47.672;9.380;2023-04-25T00:23:22;11.35;;;3.20;;
78131;SDS011;67381;47.672;9.380;2023-04-25T00:25:50;4.55;;;2.80;;
78131;SDS011;67381;47.672;9.380;2023-04-25T00:28:18;4.38;;;2.70;;
78131;SDS011;67381;47.672;9.380;2023-04-25T00:30:45;8.18;;;2.42;;
78131;SDS011;67381;47.672;9.380;2023-04-25T00:33:12;5.63;;;2.80;;
78131;SDS011;67381;47.672;9.380;2023-04-25T00:35:39;8.63;;;3.20;;
78131;SDS011;67381;47.672;9.380;2023-04-25T00:38:06;4.75;;;2.90;;
78131;SDS011;67381;47.672;9.380;2023-04-25T00:40:34;7.40;;;3.00;;
78131;SDS011;67381;47.672;9.380;2023-04-25T00:43:02;4.75;;;2.90;;
78131;SDS011;67381;47.672;9.380;2023-04-25T00:45:29;6.05;;;2.45;;
78131;SDS011;67381;47.672;9.380;2023-04-25T00:47:56;3.47;;;2.42;;
78131;SDS011;67381;47.672;9.380;2023-04-25T00:50:24;4.38;;;2.90;;
78131;SDS011;67381;47.672;9.380;2023-04-25T00:52:51;5.75;;;2.83;;
78131;SDS011;67381;47.672;9.380;2023-04-25T00:55:18;5.93;;;3.38;;
78131;SDS011;67381;47.672;9.380;2023-04-25T00:57:46;7.30;;;2.88;;
78131;SDS011;67381;47.672;9.380;2023-04-25T01:00:13;4.93;;;2.72;;
78131;SDS011;67381;47.672;9.380;2023-04-25T01:02:41;6.20;;;2.55;;
78131;SDS011;67381;47.672;9.380;2023-04-25T01:05:09;7.65;;;4.25;;
78131;SDS011;67381;47.672;9.380;2023-04-25T01:07:36;5.88;;;2.38;;
78131;SDS011;67381;47.672;9.380;2023-04-25T01:10:04;4.47;;;2.63;;
78131;SDS011;67381;47.672;9.380;2023-04-25T01:12:33;5.45;;;3.15;;
78131;SDS011;67381;47.672;9.380;2023-04-25T01:15:00;8.20;;;3.42;;
78131;SDS011;67381;47.672;9.380;2023-04-25T01:17:29;5.57;;;2.92;;
78131;SDS011;67381;47.672;9.380;2023-04-25T01:19:56;5.57;;;2.80;;
78131;SDS011;67381;47.672;9.380;2023-04-25T01:22:23;5.55;;;2.97;;
78131;SDS011;67381;47.672;9.380;2023-04-25T01:24:50;4.07;;;2.70;;
78131;SDS011;67381;47.672;9.380;2023-04-25T01:27:18;6.90;;;2.90;;
78131;SDS011;67381;47.672;9.380;2023-04-25T01:29:45;8.27;;;3.10;;
78131;SDS011;67381;47.672;9.380;2023-04-25T01:32:13;5.38;;;2.85;;
78131;SDS011;67381;47.672;9.380;2023-04-25T01:34:40;7.05;;;3.15;;
78131;SDS011;67381;47.672;9.380;2023-04-25T01:37:07;5.10;;;2.42;;
78131;SDS011;67381;47.672;9.380;2023-04-25T01:39:35;5.82;;;3.28;;
78131;SDS011;67381;47.672;9.380;2023-04-25T01:42:02;5.97;;;2.85;;
78131;SDS011;67381;47.672;9.380;2023-04-25T01:44:29;5.18;;;3.00;;
78131;SDS011;67381;47.672;9.380;2023-04-25T01:46:56;4.57;;;3.25;;
78131;SDS011;67381;47.672;9.380;2023-04-25T01:49:24;6.00;;;2.92;;
78131;SDS011;67381;47.672;9.380;2023-04-25T01:51:51;5.88;;;2.47;;
78131;SDS011;67381;47.672;9.380;2023-04-25T01:54:18;4.07;;;2.53;;
78131;SDS011;67381;47.672;9.380;2023-04-25T01:56:49;2.90;;;2.17;;
78131;SDS011;67381;47.672;9.380;2023-04-25T01:59:18;3.53;;;2.22;;
78131;SDS011;67381;47.672;9.380;2023-04-25T02:01:46;4.10;;;2.17;;
78131;SDS011;67381;47.672;9.380;2023-04-25T02:04:14;4.22;;;2.22;;
78131;SDS011;67381;47.672;9.380;2023-04-25T02:06:41;4.32;;;2.05;;
78131;SDS011;67381;47.672;9.380;2023-04-25T02:09:08;4.38;;;2.28;;
78131;SDS011;67381;47.672;9.380;2023-04-25T02:11:35;4.13;;;2.35;;
78131;SDS011;67381;47.672;9.380;2023-04-25T02:14:02;3.80;;;2.38;;
78131;SDS011;67381;47.672;9.380;2023-04-25T02:16:30;3.35;;;2.40;;
78131;SDS011;67381;47.672;9.380;2023-04-25T02:18:57;6.72;;;1.80;;
78131;SDS011;67381;47.672;9.380;2023-04-25T02:21:24;5.63;;;2.83;;
78131;SDS011;67381;47.672;9.380;2023-04-25T02:23:53;4.07;;;2.30;;
78131;SDS011;67381;47.672;9.380;2023-04-25T02:26:20;5.85;;;2.53;;
78131;SDS011;67381;47.672;9.380;2023-04-25T02:28:47;5.45;;;2.72;;
78131;SDS011;67381;47.672;9.380;2023-04-25T02:31:15;5.90;;;2.72;;
78131;SDS011;67381;47.672;9.380;2023-04-25T02:33:42;6.10;;;3.15;;
78131;SDS011;67381;47.672;9.380;2023-04-25T02:36:10;8.52;;;3.35;;
78131;SDS011;67381;47.672;9.380;2023-04-25T02:38:37;5.05;;;2.53;;
78131;SDS011;67381;47.672;9.380;2023-04-25T02:41:04;6.07;;;2.90;;
78131;SDS011;67381;47.672;9.380;2023-04-25T02:43:32;4.28;;;2.55;;
78131;SDS011;67381;47.672;9.380;2023-04-25T02:45:59;6.95;;;3.28;;
78131;SDS011;67381;47.672;9.380;2023-04-25T02:48:26;4.82;;;3.00;;
78131;SDS011;67381;47.672;9.380;2023-04-25T02:50:53;4.85;;;2.15;;
78131;SDS011;67381;47.672;9.380;2023-04-25T02:53:21;4.10;;;2.63;;
78131;SDS011;67381;47.672;9.380;2023-04-25T02:55:48;6.30;;;2.53;;
78131;SDS011;67381;47.672;9.380;2023-04-25T02:58:15;7.28;;;3.20;;
78131;SDS011;67381;47.672;9.380;2023-04-25T03:00:42;6.25;;;2.33;;
78131;SDS011;67381;47.672;9.380;2023-04-25T03:03:10;8.70;;;3.30;;
78131;SDS011;67381;47.672;9.380;2023-04-25T03:05:37;6.45;;;2.60;;
78131;SDS011;67381;47.672;9.380;2023-04-25T03:08:04;4.88;;;3.80;;
78131;SDS011;67381;47.672;9.380;2023-04-25T03:10:32;5.18;;;2.50;;
78131;SDS011;67381;47.672;9.380;2023-04-25T03:12:59;4.97;;;2.70;;
78131;SDS011;67381;47.672;9.380;2023-04-25T03:15:26;4.13;;;2.45;;
78131;SDS011;67381;47.672;9.380;2023-04-25T03:17:53;7.60;;;3.20;;
78131;SDS011;67381;47.672;9.380;2023-04-25T03:20:20;5.22;;;3.30;;
78131;SDS011;67381;47.672;9.380;2023-04-25T03:22:48;4.70;;;3.10;;
78131;SDS011;67381;47.672;9.380;2023-04-25T03:25:15;5.47;;;3.55;;
78131;SDS011;67381;47.672;9.380;2023-04-25T03:27:42;7.13;;;3.55;;
78131;SDS011;67381;47.672;9.380;2023-04-25T03:30:10;7.95;;;3.75;;
78131;SDS011;67381;47.672;9.380;2023-04-25T03:32:37;5.85;;;2.63;;
78131;SDS011;67381;47.672;9.380;2023-04-25T03:35:05;6.60;;;3.05;;
78131;SDS011;67381;47.672;9.380;2023-04-25T03:37:32;5.43;;;3.03;;
78131;SDS011;67381;47.672;9.380;2023-04-25T03:39:59;5.90;;;3.38;;
78131;SDS011;67381;47.672;9.380;2023-04-25T03:42:26;6.07;;;3.20;;
78131;SDS011;67381;47.672;9.380;2023-04-25T03:44:54;6.25;;;3.47;;
78131;SDS011;67381;47.672;9.380;2023-04-25T03:47:21;7.18;;;3.10;;
78131;SDS011;67381;47.672;9.380;2023-04-25T03:49:48;7.22;;;3.00;;
78131;SDS011;67381;47.672;9.380;2023-04-25T03:52:18;4.50;;;2.85;;
78131;SDS011;67381;47.672;9.380;2023-04-25T03:54:45;9.23;;;3.20;;
78131;SDS011;67381;47.672;9.380;2023-04-25T03:57:13;5.38;;;2.92;;
78131;SDS011;67381;47.672;9.380;2023-04-25T03:59:40;4.82;;;2.65;;
78131;SDS011;67381;47.672;9.380;2023-04-25T04:02:07;7.28;;;3.50;;
78131;SDS011;67381;47.672;9.380;2023-04-25T04:04:34;7.32;;;3.35;;
78131;SDS011;67381;47.672;9.380;2023-04-25T04:07:02;8.13;;;3.08;;
78131;SDS011;67381;47.672;9.380;2023-04-25T04:09:29;7.78;;;3.15;;
78131;SDS011;67381;47.672;9.380;2023-04-25T04:11:57;6.07;;;3.10;;
78131;SDS011;67381;47.672;9.380;2023-04-25T04:14:24;5.43;;;3.13;;
78131;SDS011;67381;47.672;9.380;2023-04-25T04:16:51;4.95;;;3.58;;
78131;SDS011;67381;47.672;9.380;2023-04-25T04:19:19;6.50;;;2.95;;
78131;SDS011;67381;47.672;9.380;2023-04-25T04:21:47;6.32;;;2.63;;
78131;SDS011;67381;47.672;9.380;2023-04-25T04:24:14;4.97;;;3.13;;
78131;SDS011;67381;47.672;9.380;2023-04-25T04:26:43;5.78;;;2.92;;
78131;SDS011;67381;47.672;9.380;2023-04-25T04:29:11;7.15;;;3.53;;
78131;SDS011;67381;47.672;9.380;2023-04-25T04:31:49;5.15;;;2.75;;
78131;SDS011;67381;47.672;9.380;2023-04-25T04:34:17;7.15;;;2.92;;
78131;SDS011;67381;47.672;9.380;2023-04-25T04:36:45;4.57;;;2.72;;
78131;SDS011;67381;47.672;9.380;2023-04-25T04:39:13;8.20;;;3.03;;
78131;SDS011;67381;47.672;9.380;2023-04-25T04:41:41;7.50;;;2.95;;
78131;SDS011;67381;47.672;9.380;2023-04-25T04:44:09;5.05;;;2.85;;
78131;SDS011;67381;47.672;9.380;2023-04-25T04:46:37;3.53;;;2.63;;
78131;SDS011;67381;47.672;9.380;2023-04-25T04:49:09;5.80;;;3.17;;
78131;SDS011;67381;47.672;9.380;2023-04-25T04:51:36;4.85;;;2.15;;
78131;SDS011;67381;47.672;9.380;2023-04-25T04:54:04;5.78;;;2.88;;
78131;SDS011;67381;47.672;9.380;2023-04-25T04:56:31;6.28;;;3.15;;
78131;SDS011;67381;47.672;9.380;2023-04-25T04:58:59;6.00;;;2.53;;
78131;SDS011;67381;47.672;9.380;2023-04-25T05:01:26;4.20;;;2.95;;
78131;SDS011;67381;47.672;9.380;2023-04-25T05:03:53;13.18;;;5.18;;
78131;SDS011;67381;47.672;9.380;2023-04-25T05:06:21;4.78;;;2.95;;
78131;SDS011;67381;47.672;9.380;2023-04-25T05:08:48;6.93;;;3.47;;
78131;SDS011;67381;47.672;9.380;2023-04-25T05:11:16;5.28;;;3.35;;
78131;SDS011;67381;47.672;9.380;2023-04-25T05:13:43;7.45;;;3.33;;
78131;SDS011;67381;47.672;9.380;2023-04-25T05:16:10;10.38;;;4.32;;
78131;SDS011;67381;47.672;9.380;2023-04-25T05:18:38;7.97;;;3.20;;
78131;SDS011;67381;47.672;9.380;2023-04-25T05:21:06;4.45;;;3.10;;
78131;SDS011;67381;47.672;9.380;2023-04-25T05:23:33;7.80;;;3.78;;
78131;SDS011;67381;47.672;9.380;2023-04-25T05:26:00;8.23;;;3.97;;
78131;SDS011;67381;47.672;9.380;2023-04-25T05:28:28;9.75;;;3.40;;
78131;SDS011;67381;47.672;9.380;2023-04-25T05:30:55;4.90;;;3.25;;
78131;SDS011;67381;47.672;9.380;2023-04-25T05:33:22;6.45;;;2.95;;
78131;SDS011;67381;47.672;9.380;2023-04-25T05:35:50;7.28;;;2.72;;
78131;SDS011;67381;47.672;9.380;2023-04-25T05:38:17;5.15;;;3.15;;
78131;SDS011;67381;47.672;9.380;2023-04-25T05:40:44;8.45;;;3.25;;
78131;SDS011;67381;47.672;9.380;2023-04-25T05:43:11;5.53;;;3.60;;
78131;SDS011;67381;47.672;9.380;2023-04-25T05:45:38;6.15;;;3.30;;
78131;SDS011;67381;47.672;9.380;2023-04-25T05:48:06;10.80;;;3.80;;
78131;SDS011;67381;47.672;9.380;2023-04-25T05:50:33;7.82;;;3.47;;
78131;SDS011;67381;47.672;9.380;2023-04-25T05:53:01;6.30;;;3.47;;
78131;SDS011;67381;47.672;9.380;2023-04-25T05:55:29;11.65;;;3.50;;
78131;SDS011;67381;47.672;9.380;2023-04-25T05:57:57;10.07;;;4.10;;
78131;SDS011;67381;47.672;9.380;2023-04-25T06:00:24;6.88;;;3.95;;
78131;SDS011;67381;47.672;9.380;2023-04-25T06:02:51;8.13;;;3.65;;
78131;SDS011;67381;47.672;9.380;2023-04-25T06:05:19;8.00;;;3.55;;
78131;SDS011;67381;47.672;9.380;2023-04-25T06:07:47;6.03;;;3.63;;
78131;SDS011;67381;47.672;9.380;2023-04-25T06:10:14;8.32;;;3.40;;
78131;SDS011;67381;47.672;9.380;2023-04-25T06:12:41;9.48;;;3.13;;
78131;SDS011;67381;47.672;9.380;2023-04-25T06:15:09;6.60;;;3.13;;
78131;SDS011;67381;47.672;9.380;2023-04-25T06:17:42;6.85;;;3.22;;
78131;SDS011;67381;47.672;9.380;2023-04-25T06:20:10;6.15;;;3.17;;
78131;SDS011;67381;47.672;9.380;2023-04-25T06:22:37;7.65;;;3.67;;
78131;SDS011;67381;47.672;9.380;2023-04-25T06:25:04;8.07;;;3.38;;
78131;SDS011;67381;47.672;9.380;2023-04-25T06:27:34;6.40;;;3.38;;
78131;SDS011;67381;47.672;9.380;2023-04-25T06:30:01;4.65;;;3.00;;
78131;SDS011;67381;47.672;9.380;2023-04-25T06:32:28;9.88;;;4.80;;
78131;SDS011;67381;47.672;9.380;2023-04-25T06:34:56;5.07;;;3.08;;
78131;SDS011;67381;47.672;9.380;2023-04-25T06:37:23;5.72;;;3.13;;
78131;SDS011;67381;47.672;9.380;2023-04-25T06:39:51;5.07;;;2.67;;
78131;SDS011;67381;47.672;9.380;2023-04-25T06:42:18;14.07;;;3.53;;
78131;SDS011;67381;47.672;9.380;2023-04-25T06:44:45;9.35;;;4.03;;
78131;SDS011;67381;47.672;9.380;2023-04-25T06:47:13;5.50;;;2.95;;
78131;SDS011;67381;47.672;9.380;2023-04-25T06:49:41;5.55;;;2.80;;
78131;SDS011;67381;47.672;9.380;2023-04-25T06:52:08;6.07;;;2.78;;
78131;SDS011;67381;47.672;9.380;2023-04-25T06:54:35;7.80;;;3.13;;
78131;SDS011;67381;47.672;9.380;2023-04-25T06:57:02;8.23;;;3.15;;
78131;SDS011;67381;47.672;9.380;2023-04-25T06:59:29;8.18;;;2.90;;
78131;SDS011;67381;47.672;9.380;2023-04-25T07:01:57;6.30;;;2.95;;
78131;SDS011;67381;47.672;9.380;2023-04-25T07:04:24;6.50;;;2.85;;
78131;SDS011;67381;47.672;9.380;2023-04-25T07:06:51;5.15;;;3.08;;
78131;SDS011;67381;47.672;9.380;2023-04-25T07:09:19;8.10;;;3.67;;
78131;SDS011;67381;47.672;9.380;2023-04-25T07:11:46;6.78;;;3.55;;
78131;SDS011;67381;47.672;9.380;2023-04-25T07:14:13;7.03;;;4.07;;
78131;SDS011;67381;47.672;9.380;2023-04-25T07:16:41;8.75;;;3.35;;
78131;SDS011;67381;47.672;9.380;2023-04-25T07:19:09;4.80;;;2.95;;
78131;SDS011;67381;47.672;9.380;2023-04-25T07:21:36;7.65;;;2.95;;
78131;SDS011;67381;47.672;9.380;2023-04-25T07:24:03;8.90;;;3.40;;
78131;SDS011;67381;47.672;9.380;2023-04-25T07:26:31;7.85;;;3.20;;
78131;SDS011;67381;47.672;9.380;2023-04-25T07:28:58;6.43;;;3.42;;
78131;SDS011;67381;47.672;9.380;2023-04-25T07:31:25;6.18;;;3.15;;
78131;SDS011;67381;47.672;9.380;2023-04-25T07:33:53;7.95;;;4.85;;
78131;SDS011;67381;47.672;9.380;2023-04-25T07:36:20;5.80;;;3.08;;
78131;SDS011;67381;47.672;9.380;2023-04-25T07:38:48;8.32;;;4.05;;
78131;SDS011;67381;47.672;9.380;2023-04-25T07:41:15;9.45;;;4.53;;
78131;SDS011;67381;47.672;9.380;2023-04-25T07:43:42;9.77;;;3.53;;
78131;SDS011;67381;47.672;9.380;2023-04-25T07:46:10;6.95;;;4.00;;
78131;SDS011;67381;47.672;9.380;2023-04-25T07:48:37;6.63;;;3.58;;
78131;SDS011;67381;47.672;9.380;2023-04-25T07:51:04;5.35;;;2.45;;
78131;SDS011;67381;47.672;9.380;2023-04-25T07:53:32;7.70;;;3.35;;
78131;SDS011;67381;47.672;9.380;2023-04-25T07:56:01;7.20;;;2.95;;
78131;SDS011;67381;47.672;9.380;2023-04-25T07:58:29;8.02;;;2.97;;
78131;SDS011;67381;47.672;9.380;2023-04-25T08:00:56;4.95;;;3.45;;
78131;SDS011;67381;47.672;9.380;2023-04-25T08:03:23;6.40;;;3.53;;
78131;SDS011;67381;47.672;9.380;2023-04-25T08:05:50;7.85;;;2.72;;
78131;SDS011;67381;47.672;9.380;2023-04-25T08:08:18;4.72;;;2.80;;
78131;SDS011;67381;47.672;9.380;2023-04-25T08:10:45;9.50;;;2.70;;
78131;SDS011;67381;47.672;9.380;2023-04-25T08:13:12;6.20;;;2.97;;
78131;SDS011;67381;47.672;9.380;2023-04-25T08:15:40;4.78;;;3.08;;
78131;SDS011;67381;47.672;9.380;2023-04-25T08:18:07;6.70;;;2.55;;
78131;SDS011;67381;47.672;9.380;2023-04-25T08:20:34;5.28;;;2.80;;
78131;SDS011;67381;47.672;9.380;2023-04-25T08:23:02;10.27;;;3.20;;
78131;SDS011;67381;47.672;9.380;2023-04-25T08:25:29;4.32;;;2.22;;
78131;SDS011;67381;47.672;9.380;2023-04-25T08:27:56;3.83;;;2.35;;
78131;SDS011;67381;47.672;9.380;2023-04-25T08:30:26;8.13;;;3.15;;
78131;SDS011;67381;47.672;9.380;2023-04-25T08:32:53;6.03;;;3.20;;
78131;SDS011;67381;47.672;9.380;2023-04-25T08:35:21;8.75;;;3.22;;
78131;SDS011;67381;47.672;9.380;2023-04-25T08:37:48;8.35;;;3.63;;
78131;SDS011;67381;47.672;9.380;2023-04-25T08:40:16;6.90;;;4.18;;
78131;SDS011;67381;47.672;9.380;2023-04-25T08:42:43;4.80;;;2.92;;
78131;SDS011;67381;47.672;9.380;2023-04-25T08:45:11;5.47;;;3.10;;
78131;SDS011;67381;47.672;9.380;2023-04-25T08:47:38;5.10;;;3.38;;
78131;SDS011;67381;47.672;9.380;2023-04-25T08:50:06;6.07;;;3.13;;
78131;SDS011;67381;47.672;9.380;2023-04-25T08:52:37;7.75;;;3.17;;
78131;SDS011;67381;47.672;9.380;2023-04-25T08:55:12;4.72;;;3.08;;
78131;SDS011;67381;47.672;9.380;2023-04-25T08:57:41;5.03;;;3.55;;
78131;SDS011;67381;47.672;9.380;2023-04-25T09:00:09;8.20;;;3.47;;
78131;SDS011;67381;47.672;9.380;2023-04-25T09:02:39;5.75;;;4.20;;
78131;SDS011;67381;47.672;9.380;2023-04-25T09:05:06;11.98;;;5.68;;
78131;SDS011;67381;47.672;9.380;2023-04-25T09:07:36;7.80;;;4.82;;
78131;SDS011;67381;47.672;9.380;2023-04-25T09:10:03;7.85;;;4.97;;
78131;SDS011;67381;47.672;9.380;2023-04-25T09:12:31;8.45;;;5.18;;
78131;SDS011;67381;47.672;9.380;2023-04-25T09:15:03;9.43;;;5.38;;
78131;SDS011;67381;47.672;9.380;2023-04-25T09:17:32;9.43;;;4.20;;
78131;SDS011;67381;47.672;9.380;2023-04-25T09:20:09;11.75;;;5.82;;
78131;SDS011;67381;47.672;9.380;2023-04-25T09:22:38;7.63;;;4.95;;
78131;SDS011;67381;47.672;9.380;2023-04-25T09:25:09;6.55;;;4.97;;
78131;SDS011;67381;47.672;9.380;2023-04-25T09:27:50;6.43;;;4.55;;
78131;SDS011;67381;47.672;9.380;2023-04-25T09:30:18;9.02;;;4.55;;
78131;SDS011;67381;47.672;9.380;2023-04-25T09:32:56;6.82;;;4.32;;
78131;SDS011;67381;47.672;9.380;2023-04-25T09:35:25;6.15;;;3.70;;
78131;SDS011;67381;47.672;9.380;2023-04-25T09:37:55;7.28;;;3.58;;
78131;SDS011;67381;47.672;9.380;2023-04-25T09:40:22;10.43;;;4.57;;
78131;SDS011;67381;47.672;9.380;2023-04-25T09:42:49;6.90;;;3.97;;
78131;SDS011;67381;47.672;9.380;2023-04-25T09:45:17;5.65;;;4.18;;
78131;SDS011;67381;47.672;9.380;2023-04-25T09:47:44;8.70;;;3.70;;
78131;SDS011;67381;47.672;9.380;2023-04-25T09:50:16;5.13;;;3.53;;
78131;SDS011;67381;47.672;9.380;2023-04-25T09:52:46;5.10;;;3.47;;
78131;SDS011;67381;47.672;9.380;2023-04-25T09:55:29;5.15;;;2.75;;
78131;SDS011;67381;47.672;9.380;2023-04-25T09:57:57;3.67;;;2.20;;
78131;SDS011;67381;47.672;9.380;2023-04-25T10:00:27;3.78;;;2.40;;
78131;SDS011;67381;47.672;9.380;2023-04-25T10:02:55;4.78;;;2.28;;
78131;SDS011;67381;47.672;9.380;2023-04-25T10:05:22;4.03;;;2.15;;
78131;SDS011;67381;47.672;9.380;2023-04-25T10:07:51;4.40;;;2.45;;
78131;SDS011;67381;47.672;9.380;2023-04-25T10:10:18;5.05;;;2.88;;
78131;SDS011;67381;47.672;9.380;2023-04-25T10:12:46;3.38;;;2.40;;
78131;SDS011;67381;47.672;9.380;2023-04-25T10:15:14;3.30;;;1.98;;
78131;SDS011;67381;47.672;9.380;2023-04-25T10:17:42;4.93;;;1.63;;
78131;SDS011;67381;47.672;9.380;2023-04-25T10:20:10;2.78;;;1.40;;
78131;SDS011;67381;47.672;9.380;2023-04-25T10:22:41;2.75;;;1.60;;
78131;SDS011;67381;47.672;9.380;2023-04-25T10:25:09;3.72;;;1.98;;
78131;SDS011;67381;47.672;9.380;2023-04-25T10:27:37;3.85;;;1.77;;
78131;SDS011;67381;47.672;9.380;2023-04-25T10:30:15;2.40;;;1.50;;
78131;SDS011;67381;47.672;9.380;2023-04-25T10:32:43;1.90;;;1.23;;
78131;SDS011;67381;47.672;9.380;2023-04-25T10:35:19;2.42;;;1.48;;
78131;SDS011;67381;47.672;9.380;2023-04-25T10:40:24;2.30;;;1.20;;
78131;SDS011;67381;47.672;9.380;2023-04-25T10:42:52;1.77;;;1.25;;
78131;SDS011;67381;47.672;9.380;2023-04-25T10:45:21;2.38;;;1.70;;
78131;SDS011;67381;47.672;9.380;2023-04-25T10:47:48;2.33;;;1.40;;
78131;SDS011;67381;47.672;9.380;2023-04-25T10:50:16;2.92;;;1.55;;
78131;SDS011;67381;47.672;9.380;2023-04-25T10:52:44;3.28;;;1.70;;
78131;SDS011;67381;47.672;9.380;2023-04-25T10:55:11;3.10;;;1.20;;
78131;SDS011;67381;47.672;9.380;2023-04-25T11:05:09;1.90;;;1.13;;
78131;SDS011;67381;47.672;9.380;2023-04-25T11:07:38;2.40;;;1.30;;
78131;SDS011;67381;47.672;9.380;2023-04-25T11:10:11;2.70;;;1.20;;
78131;SDS011;67381;47.672;9.380;2023-04-25T11:12:39;2.42;;;1.10;;
78131;SDS011;67381;47.672;9.380;2023-04-25T11:15:06;4.50;;;1.63;;
78131;SDS011;67381;47.672;9.380;2023-04-25T11:17:34;2.72;;;1.77;;
78131;SDS011;67381;47.672;9.380;2023-04-25T11:20:02;4.35;;;2.35;;
78131;SDS011;67381;47.672;9.380;2023-04-25T11:22:34;3.97;;;1.80;;
78131;SDS011;67381;47.672;9.380;2023-04-25T11:25:04;3.85;;;1.80;;
78131;SDS011;67381;47.672;9.380;2023-04-25T11:27:32;4.45;;;1.83;;
78131;SDS011;67381;47.672;9.380;2023-04-25T11:30:13;3.25;;;2.05;;
78131;SDS011;67381;47.672;9.380;2023-04-25T11:32:42;3.85;;;1.45;;
78131;SDS011;67381;47.672;9.380;2023-04-25T11:35:10;3.08;;;2.05;;
78131;SDS011;67381;47.672;9.380;2023-04-25T11:37:40;2.67;;;1.83;;
78131;SDS011;67381;47.672;9.380;2023-04-25T11:40:08;3.08;;;2.08;;
78131;SDS011;67381;47.672;9.380;2023-04-25T11:42:37;2.92;;;1.40;;
78131;SDS011;67381;47.672;9.380;2023-04-25T11:45:05;3.00;;;1.60;;
78131;SDS011;67381;47.672;9.380;2023-04-25T11:47:33;3.40;;;1.92;;
78131;SDS011;67381;47.672;9.380;2023-04-25T11:50:01;2.58;;;1.45;;
78131;SDS011;67381;47.672;9.380;2023-04-25T11:52:37;2.40;;;1.45;;
78131;SDS011;67381;47.672;9.380;2023-04-25T11:57:42;3.67;;;1.48;;
78131;SDS011;67381;47.672;9.380;2023-04-25T12:00:17;2.80;;;1.48;;
78131;SDS011;67381;47.672;9.380;2023-04-25T12:02:55;2.03;;;1.17;;
78131;SDS011;67381;47.672;9.380;2023-04-25T12:05:25;2.58;;;1.50;;
78131;SDS011;67381;47.672;9.380;2023-04-25T12:07:57;4.75;;;1.67;;
78131;SDS011;67381;47.672;9.380;2023-04-25T12:10:24;3.72;;;1.52;;
78131;SDS011;67381;47.672;9.380;2023-04-25T12:12:52;4.38;;;1.45;;
78131;SDS011;67381;47.672;9.380;2023-04-25T12:15:24;3.10;;;1.13;;
78131;SDS011;67381;47.672;9.380;2023-04-25T12:17:53;2.22;;;1.17;;
78131;SDS011;67381;47.672;9.380;2023-04-25T12:20:23;2.03;;;1.20;;
78131;SDS011;67381;47.672;9.380;2023-04-25T12:22:52;1.90;;;1.08;;
78131;SDS011;67381;47.672;9.380;2023-04-25T12:28:12;1.20;;;0.82;;
78131;SDS011;67381;47.672;9.380;2023-04-25T12:31:00;2.08;;;0.85;;
78131;SDS011;67381;47.672;9.380;2023-04-25T12:33:28;1.27;;;0.90;;
78131;SDS011;67381;47.672;9.380;2023-04-25T12:35:56;1.48;;;0.70;;
78131;SDS011;67381;47.672;9.380;2023-04-25T12:38:26;1.30;;;0.80;;
78131;SDS011;67381;47.672;9.380;2023-04-25T12:40:54;1.10;;;0.80;;
78131;SDS011;67381;47.672;9.380;2023-04-25T12:43:21;1.23;;;0.95;;
78131;SDS011;67381;47.672;9.380;2023-04-25T12:45:49;0.32;;;0.30;;
78131;SDS011;67381;47.672;9.380;2023-04-25T12:48:20;1.48;;;0.90;;
78131;SDS011;67381;47.672;9.380;2023-04-25T12:50:47;1.58;;;0.98;;
78131;SDS011;67381;47.672;9.380;2023-04-25T12:53:16;1.42;;;0.95;;
78131;SDS011;67381;47.672;9.380;2023-04-25T12:55:44;1.23;;;0.80;;
78131;SDS011;67381;47.672;9.380;2023-04-25T12:58:15;1.60;;;0.75;;
78131;SDS011;67381;47.672;9.380;2023-04-25T13:00:44;1.35;;;0.95;;
78131;SDS011;67381;47.672;9.380;2023-04-25T13:03:12;1.60;;;1.02;;
78131;SDS011;67381;47.672;9.380;2023-04-25T13:05:39;1.13;;;1.00;;
78131;SDS011;67381;47.672;9.380;2023-04-25T13:08:07;4.13;;;2.30;;
78131;SDS011;67381;47.672;9.380;2023-04-25T13:13:03;1.20;;;0.73;;
78131;SDS011;67381;47.672;9.380;2023-04-25T13:15:30;1.70;;;0.70;;
78131;SDS011;67381;47.672;9.380;2023-04-25T13:17:57;1.33;;;0.95;;
78131;SDS011;67381;47.672;9.380;2023-04-25T13:20:24;1.20;;;0.70;;
78131;SDS011;67381;47.672;9.380;2023-04-25T13:22:52;1.63;;;0.88;;
78131;SDS011;67381;47.672;9.380;2023-04-25T13:25:19;1.65;;;1.08;;
78131;SDS011;67381;47.672;9.380;2023-04-25T13:27:46;1.85;;;0.60;;
78131;SDS011;67381;47.672;9.380;2023-04-25T13:30:13;0.93;;;0.40;;
78131;SDS011;67381;47.672;9.380;2023-04-25T13:32:41;1.65;;;0.50;;
78131;SDS011;67381;47.672;9.380;2023-04-25T13:35:10;1.23;;;0.90;;
78131;SDS011;67381;47.672;9.380;2023-04-25T13:37:38;2.00;;;0.88;;
78131;SDS011;67381;47.672;9.380;2023-04-25T13:40:06;1.30;;;0.75;;
78131;SDS011;67381;47.672;9.380;2023-04-25T13:42:36;1.77;;;1.02;;
78131;SDS011;67381;47.672;9.380;2023-04-25T13:45:05;2.17;;;0.80;;
78131;SDS011;67381;47.672;9.380;2023-04-25T13:47:33;1.73;;;1.27;;
78131;SDS011;67381;47.672;9.380;2023-04-25T13:50:01;1.75;;;0.98;;
78131;SDS011;67381;47.672;9.380;2023-04-25T13:52:30;2.50;;;1.52;;
78131;SDS011;67381;47.672;9.380;2023-04-25T13:54:58;3.60;;;0.98;;
78131;SDS011;67381;47.672;9.380;2023-04-25T13:57:25;1.58;;;0.88;;
78131;SDS011;67381;47.672;9.380;2023-04-25T13:59:53;1.30;;;0.60;;
78131;SDS011;67381;47.672;9.380;2023-04-25T14:02:20;2.85;;;0.73;;
78131;SDS011;67381;47.672;9.380;2023-04-25T14:04:48;1.73;;;0.80;;
78131;SDS011;67381;47.672;9.380;2023-04-25T14:07:15;1.42;;;0.80;;
78131;SDS011;67381;47.672;9.380;2023-04-25T14:09:43;3.83;;;0.70;;
78131;SDS011;67381;47.672;9.380;2023-04-25T14:12:10;1.40;;;0.88;;
78131;SDS011;67381;47.672;9.380;2023-04-25T14:14:38;2.65;;;1.73;;
78131;SDS011;67381;47.672;9.380;2023-04-25T14:17:05;2.10;;;1.00;;
78131;SDS011;67381;47.672;9.380;2023-04-25T14:19:33;2.00;;;1.05;;
78131;SDS011;67381;47.672;9.380;2023-04-25T14:22:00;3.50;;;1.13;;
78131;SDS011;67381;47.672;9.380;2023-04-25T14:24:28;1.67;;;0.98;;
78131;SDS011;67381;47.672;9.380;2023-04-25T14:26:55;1.85;;;0.93;;
78131;SDS011;67381;47.672;9.380;2023-04-25T14:29:23;2.00;;;1.40;;
78131;SDS011;67381;47.672;9.380;2023-04-25T14:31:50;3.47;;;1.20;;
78131;SDS011;67381;47.672;9.380;2023-04-25T14:34:17;2.42;;;0.90;;
78131;SDS011;67381;47.672;9.380;2023-04-25T14:36:44;1.58;;;0.85;;
78131;SDS011;67381;47.672;9.380;2023-04-25T14:39:12;2.28;;;1.08;;
78131;SDS011;67381;47.672;9.380;2023-04-25T14:41:40;4.40;;;1.20;;
78131;SDS011;67381;47.672;9.380;2023-04-25T14:44:08;2.30;;;1.50;;
78131;SDS011;67381;47.672;9.380;2023-04-25T14:46:35;1.92;;;1.13;;
78131;SDS011;67381;47.672;9.380;2023-04-25T14:49:03;3.95;;;1.30;;
78131;SDS011;67381;47.672;9.380;2023-04-25T14:51:30;4.43;;;1.48;;
78131;SDS011;67381;47.672;9.380;2023-04-25T14:53:57;2.97;;;1.55;;
78131;SDS011;67381;47.672;9.380;2023-04-25T14:56:25;2.72;;;1.40;;
78131;SDS011;67381;47.672;9.380;2023-04-25T14:58:52;2.20;;;1.30;;
78131;SDS011;67381;47.672;9.380;2023-04-25T15:01:19;1.95;;;1.02;;
78131;SDS011;67381;47.672;9.380;2023-04-25T15:03:47;2.80;;;1.40;;
78131;SDS011;67381;47.672;9.380;2023-04-25T15:06:15;2.88;;;1.63;;
78131;SDS011;67381;47.672;9.380;2023-04-25T15:08:42;2.30;;;1.30;;
78131;SDS011;67381;47.672;9.380;2023-04-25T15:11:09;2.13;;;1.25;;